createdAt,value
2019-04-07T00:01:27.408Z,15.98
2019-04-07T00:03:55.890Z,15.65
2019-04-07T00:06:24.222Z,15.63
2019-04-07T00:08:51.999Z,14.30
2019-04-07T00:11:19.589Z,14.93
2019-04-07T00:13:46.930Z,14.60
2019-04-07T00:16:14.562Z,14.70
2019-04-07T00:18:43.057Z,16.27
2019-04-07T00:21:10.434Z,16.27
2019-04-07T00:23:38.913Z,14.85
2019-04-07T00:26:06.443Z,15.35
2019-04-07T00:28:34.040Z,15.68
2019-04-07T00:31:01.929Z,15.28
2019-04-07T00:33:29.708Z,16.15
2019-04-07T00:35:57.207Z,17.27
2019-04-07T00:38:24.835Z,15.53
2019-04-07T00:40:52.511Z,16.20
2019-04-07T00:43:20.883Z,14.73
2019-04-07T00:45:48.472Z,16.30
2019-04-07T00:48:15.968Z,16.07
2019-04-07T00:50:43.584Z,16.12
2019-04-07T00:53:11.007Z,16.70
2019-04-07T00:55:38.745Z,16.52
2019-04-07T00:58:06.305Z,15.72
2019-04-07T01:00:34.765Z,15.20
2019-04-07T01:03:02.217Z,16.02
2019-04-07T01:05:37.903Z,15.72
2019-04-07T01:07:59.191Z,15.15
2019-04-07T01:10:27.276Z,16.95
2019-04-07T01:12:55.572Z,16.17
2019-04-07T01:15:23.054Z,17.23
2019-04-07T01:17:50.582Z,15.75
2019-04-07T01:20:17.912Z,17.35
2019-04-07T01:22:46.207Z,15.83
2019-04-07T01:25:13.871Z,16.75
2019-04-07T01:27:41.395Z,17.05
2019-04-07T01:30:08.686Z,16.27
2019-04-07T01:32:35.862Z,15.90
2019-04-07T01:35:03.183Z,15.65
2019-04-07T01:37:30.784Z,17.30
2019-04-07T01:39:58.218Z,17.00
2019-04-07T01:42:36.958Z,15.80
2019-04-07T01:45:31.862Z,15.13
2019-04-07T01:48:19.299Z,15.80
2019-04-07T01:51:21.566Z,15.32
2019-04-07T01:54:06.557Z,16.52
2019-04-07T01:56:44.889Z,14.65
2019-04-07T01:59:27.419Z,15.65
2019-04-07T02:02:11.454Z,14.28
2019-04-07T02:04:57.959Z,16.20
2019-04-07T02:07:32.577Z,15.63
2019-04-07T02:10:11.047Z,16.65
2019-04-07T02:12:49.889Z,14.80
2019-04-07T02:15:26.812Z,16.93
2019-04-07T02:18:02.383Z,17.42
2019-04-07T02:20:56.718Z,17.45
2019-04-07T02:23:43.667Z,16.65
2019-04-07T02:26:34.376Z,16.95
2019-04-07T02:29:19.438Z,16.70
2019-04-07T02:32:06.521Z,18.37
2019-04-07T02:34:38.890Z,17.17
2019-04-07T02:37:31.329Z,17.05
2019-04-07T02:40:13.764Z,17.52
2019-04-07T02:42:46.160Z,18.65
2019-04-07T02:45:36.633Z,18.65
2019-04-07T02:48:26.558Z,18.95
2019-04-07T02:51:16.007Z,17.48
2019-04-07T02:54:00.951Z,18.02
2019-04-07T02:56:54.282Z,18.40
2019-04-07T02:59:34.209Z,17.48
2019-04-07T03:02:23.855Z,18.50
2019-04-07T03:05:16.656Z,17.82
2019-04-07T03:08:10.277Z,18.90
2019-04-07T03:11:09.649Z,18.10
2019-04-07T03:14:14.770Z,17.77
2019-04-07T03:17:02.355Z,18.32
2019-04-07T03:19:41.459Z,19.30
2019-04-07T03:22:26.971Z,16.95
2019-04-07T03:25:20.650Z,18.37
2019-04-07T03:27:59.188Z,17.20
2019-04-07T03:30:53.676Z,19.67
2019-04-07T03:33:30.031Z,19.75
2019-04-07T03:36:20.038Z,19.50
2019-04-07T03:39:03.501Z,18.62
2019-04-07T03:41:39.932Z,19.95
2019-04-07T03:44:26.577Z,19.92
2019-04-07T03:47:14.338Z,19.87
2019-04-07T03:49:58.256Z,21.50
2019-04-07T03:52:34.112Z,21.10
2019-04-07T03:55:28.272Z,21.23
2019-04-07T03:58:30.983Z,19.87
2019-04-07T04:01:18.230Z,20.17
2019-04-07T04:03:53.556Z,19.53
2019-04-07T04:06:50.170Z,20.35
2019-04-07T04:09:24.170Z,21.20
2019-04-07T04:12:03.124Z,19.25
2019-04-07T04:14:50.832Z,20.10
2019-04-07T04:17:18.433Z,19.82
2019-04-07T04:19:46.619Z,20.73
2019-04-07T04:22:14.387Z,20.73
2019-04-07T04:24:42.247Z,20.00
2019-04-07T04:27:10.800Z,20.70
2019-04-07T04:29:39.320Z,19.23
2019-04-07T04:32:07.626Z,19.90
2019-04-07T04:34:35.605Z,20.03
2019-04-07T04:37:03.932Z,18.80
2019-04-07T04:39:31.515Z,19.10
2019-04-07T04:41:59.947Z,17.87
2019-04-07T04:44:28.334Z,19.03
2019-04-07T04:46:56.357Z,19.07
2019-04-07T04:49:23.911Z,19.33
2019-04-07T04:51:51.788Z,19.20
2019-04-07T04:54:19.587Z,18.47
2019-04-07T04:56:47.281Z,19.63
2019-04-07T04:59:14.892Z,18.30
2019-04-07T05:01:43.223Z,16.80
2019-04-07T05:04:10.535Z,18.27
2019-04-07T05:06:37.995Z,18.17
2019-04-07T05:09:05.746Z,18.37
2019-04-07T05:11:32.965Z,17.80
2019-04-07T05:14:00.420Z,18.77
2019-04-07T05:16:27.616Z,18.20
2019-04-07T05:18:55.367Z,19.83
2019-04-07T05:21:22.815Z,17.70
2019-04-07T05:23:50.266Z,18.17
2019-04-07T05:26:17.583Z,18.97
2019-04-07T05:28:45.050Z,20.13
2019-04-07T05:31:12.499Z,17.23
2019-04-07T05:33:39.992Z,19.17
2019-04-07T05:36:08.223Z,18.70
2019-04-07T05:38:36.687Z,18.33
2019-04-07T05:41:04.024Z,19.50
2019-04-07T05:43:31.553Z,19.10
2019-04-07T05:45:59.283Z,17.50
2019-04-07T05:48:26.795Z,18.80
2019-04-07T05:50:53.972Z,20.00
2019-04-07T05:53:21.174Z,19.60
2019-04-07T05:55:49.166Z,20.73
2019-04-07T05:58:16.679Z,19.87
2019-04-07T06:00:46.966Z,21.53
2019-04-07T06:03:13.417Z,20.17
2019-04-07T06:05:40.963Z,21.57
2019-04-07T06:08:22.467Z,21.57
2019-04-07T06:10:38.667Z,21.73
2019-04-07T06:13:05.971Z,20.53
2019-04-07T06:15:33.607Z,21.80
2019-04-07T06:18:01.515Z,22.60
2019-04-07T06:20:30.150Z,21.50
2019-04-07T06:22:57.626Z,21.52
2019-04-07T06:25:25.131Z,22.62
2019-04-07T06:27:53.171Z,23.20
2019-04-07T06:30:22.109Z,24.43
2019-04-07T06:32:49.503Z,24.30
2019-04-07T06:35:16.978Z,24.63
2019-04-07T06:37:44.287Z,25.50
2019-04-07T06:40:12.321Z,26.37
2019-04-07T06:42:40.478Z,26.20
2019-04-07T06:45:11.866Z,25.35
2019-04-07T06:47:43.367Z,25.62
2019-04-07T06:50:25.879Z,26.55
2019-04-07T06:53:05.536Z,26.55
2019-04-07T06:55:50.694Z,25.27
2019-04-07T06:58:41.723Z,25.35
2019-04-07T07:01:27.466Z,25.57
2019-04-07T07:04:13.167Z,26.77
2019-04-07T07:06:49.303Z,25.57
2019-04-07T07:09:25.843Z,23.87
2019-04-07T07:12:20.626Z,24.72
2019-04-07T07:15:03.438Z,24.00
2019-04-07T07:18:10.140Z,24.40
2019-04-07T07:20:58.032Z,23.70
2019-04-07T07:23:29.891Z,24.50
2019-04-07T07:26:00.957Z,23.52
2019-04-07T07:28:27.414Z,23.57
2019-04-07T07:30:54.755Z,23.90
2019-04-07T07:33:22.373Z,24.23
2019-04-07T07:35:50.619Z,24.90
2019-04-07T07:38:19.165Z,24.82
2019-04-07T07:40:47.702Z,24.20
2019-04-07T07:43:16.227Z,24.20
2019-04-07T07:45:47.056Z,25.15
2019-04-07T07:48:13.150Z,24.82
2019-04-07T07:50:40.725Z,24.60
2019-04-07T07:53:08.304Z,24.47
2019-04-07T07:55:37.639Z,23.70
2019-04-07T07:58:05.502Z,23.98
2019-04-07T08:00:40.026Z,24.30
2019-04-07T08:03:05.929Z,23.32
2019-04-07T08:05:33.598Z,23.65
2019-04-07T08:08:01.764Z,22.77
2019-04-07T08:10:29.128Z,21.45
2019-04-07T08:12:57.386Z,22.52
2019-04-07T08:15:29.705Z,20.85
2019-04-07T08:17:54.351Z,19.98
2019-04-07T08:20:22.049Z,20.25
2019-04-07T08:22:49.434Z,19.37
2019-04-07T08:25:20.383Z,18.82
2019-04-07T08:27:46.349Z,19.42
2019-04-07T08:30:14.021Z,19.07
2019-04-07T08:32:42.146Z,18.80
2019-04-07T08:35:09.975Z,19.35
2019-04-07T08:37:37.343Z,17.80
2019-04-07T08:40:07.719Z,16.77
2019-04-07T08:42:36.860Z,18.02
2019-04-07T08:45:04.676Z,18.05
2019-04-07T08:47:32.209Z,17.07
2019-04-07T08:49:59.845Z,18.00
2019-04-07T08:52:27.202Z,19.50
2019-04-07T08:54:54.470Z,18.10
2019-04-07T08:57:22.589Z,18.95
2019-04-07T08:59:50.766Z,17.15
2019-04-07T09:02:19.209Z,16.67
2019-04-07T09:04:50.942Z,17.17
2019-04-07T09:07:19.691Z,17.15
2019-04-07T09:09:49.243Z,16.73
2019-04-07T09:12:17.871Z,16.70
2019-04-07T09:14:45.689Z,17.35
2019-04-07T09:17:45.953Z,15.78
2019-04-07T09:20:33.735Z,15.70
2019-04-07T09:23:10.435Z,14.60
2019-04-07T09:26:12.435Z,13.55
2019-04-07T09:28:44.387Z,13.48
2019-04-07T09:31:31.567Z,12.40
2019-04-07T09:34:25.667Z,11.08
2019-04-07T09:37:02.277Z,14.63
2019-04-07T09:39:58.479Z,13.55
2019-04-07T09:42:29.071Z,13.30
2019-04-07T09:45:10.977Z,13.43
2019-04-07T09:47:56.455Z,11.90
2019-04-07T09:50:46.147Z,11.95
2019-04-07T09:53:29.564Z,11.78
2019-04-07T09:56:32.955Z,10.98
2019-04-07T09:59:10.067Z,11.73
2019-04-07T10:02:00.927Z,11.28
2019-04-07T10:04:42.594Z,10.78
2019-04-07T10:07:20.532Z,11.53
2019-04-07T10:10:10.303Z,10.23
2019-04-07T10:12:52.501Z,10.38
2019-04-07T10:15:32.824Z,10.35
2019-04-07T10:18:28.651Z,9.95
2019-04-07T10:21:07.255Z,10.65
2019-04-07T10:23:50.968Z,9.65
2019-04-07T10:26:28.951Z,9.83
2019-04-07T10:29:04.819Z,9.53
2019-04-07T10:31:45.329Z,9.38
2019-04-07T10:34:44.966Z,9.25
2019-04-07T10:37:30.280Z,8.95
2019-04-07T10:40:18.176Z,9.25
2019-04-07T10:42:57.720Z,8.58
2019-04-07T10:45:56.007Z,9.63
2019-04-07T10:48:34.301Z,8.25
2019-04-07T10:51:33.335Z,8.20
2019-04-07T10:54:15.667Z,5.95
2019-04-07T10:56:55.235Z,4.70
2019-04-07T10:59:53.265Z,4.50
2019-04-07T11:02:40.303Z,3.85
2019-04-07T11:05:26.407Z,5.12
2019-04-07T11:08:12.649Z,4.97
2019-04-07T11:11:16.914Z,4.50
2019-04-07T11:14:11.249Z,4.40
2019-04-07T11:16:52.565Z,4.58
2019-04-07T11:19:40.306Z,4.78
2019-04-07T11:22:36.971Z,4.72
2019-04-07T11:25:14.236Z,3.85
2019-04-07T11:28:08.635Z,3.90
2019-04-07T11:30:43.774Z,3.67
2019-04-07T11:33:42.826Z,3.30
2019-04-07T11:36:28.784Z,3.60
2019-04-07T11:39:27.532Z,3.70
2019-04-07T11:42:13.053Z,3.67
2019-04-07T11:44:54.271Z,3.70
2019-04-07T11:47:29.877Z,3.90
2019-04-07T11:50:06.642Z,3.22
2019-04-07T11:52:44.891Z,3.75
2019-04-07T11:55:30.054Z,3.37
2019-04-07T11:58:28.780Z,3.75
2019-04-07T12:01:15.560Z,3.52
2019-04-07T12:04:05.779Z,3.12
2019-04-07T12:06:56.407Z,3.22
2019-04-07T12:09:37.745Z,3.30
2019-04-07T12:12:16.939Z,3.27
2019-04-07T12:15:00.899Z,3.25
2019-04-07T12:17:51.299Z,3.40
2019-04-07T12:20:36.585Z,5.45
2019-04-07T12:23:27.906Z,7.90
2019-04-07T12:26:14.112Z,3.00
2019-04-07T12:29:03.549Z,4.45
2019-04-07T12:31:56.505Z,3.80
2019-04-07T12:34:47.774Z,3.35
2019-04-07T12:37:38.048Z,3.00
2019-04-07T12:40:18.247Z,5.95
2019-04-07T12:43:04.633Z,3.70
2019-04-07T12:45:46.645Z,10.82
2019-04-07T12:48:21.353Z,8.48
2019-04-07T12:51:14.927Z,4.10
2019-04-07T12:54:09.219Z,8.00
2019-04-07T12:57:02.553Z,3.42
2019-04-07T12:59:51.768Z,3.40
2019-04-07T13:02:25.870Z,3.77
2019-04-07T13:05:16.412Z,2.98
2019-04-07T13:07:55.509Z,3.20
2019-04-07T13:10:37.907Z,3.70
2019-04-07T13:13:32.504Z,3.10
2019-04-07T13:16:06.216Z,3.02
2019-04-07T13:19:09.294Z,3.30
2019-04-07T13:21:57.322Z,8.15
2019-04-07T13:24:51.658Z,7.58
2019-04-07T13:27:32.633Z,21.12
2019-04-07T13:30:24.587Z,4.45
2019-04-07T13:33:02.951Z,3.50
2019-04-07T13:35:36.997Z,4.25
2019-04-07T13:38:18.190Z,3.70
2019-04-07T13:41:18.608Z,4.33
2019-04-07T13:44:07.093Z,3.60
2019-04-07T13:46:48.996Z,3.40
2019-04-07T13:49:38.164Z,3.20
2019-04-07T13:52:34.404Z,7.22
2019-04-07T13:55:27.411Z,4.30
2019-04-07T13:58:26.169Z,3.27
2019-04-07T14:01:12.780Z,3.92
2019-04-07T14:04:15.600Z,3.50
2019-04-07T14:07:05.490Z,3.05
2019-04-07T14:09:43.118Z,3.47
2019-04-07T14:12:30.957Z,3.00
2019-04-07T14:15:14.321Z,3.50
2019-04-07T14:18:05.680Z,3.10
2019-04-07T14:20:51.442Z,3.35
2019-04-07T14:23:25.213Z,3.55
2019-04-07T14:26:10.266Z,2.95
2019-04-07T14:28:53.696Z,3.35
2019-04-07T14:31:42.313Z,3.33
2019-04-07T14:34:23.014Z,3.42
2019-04-07T14:37:07.434Z,2.90
2019-04-07T14:39:49.622Z,3.12
2019-04-07T14:42:38.263Z,3.45
2019-04-07T14:45:38.425Z,3.50
2019-04-07T14:48:34.797Z,3.40
2019-04-07T14:51:23.075Z,3.12
2019-04-07T14:54:02.808Z,3.50
2019-04-07T14:56:51.865Z,3.25
2019-04-07T14:59:53.916Z,3.37
2019-04-07T15:02:20.425Z,3.12
2019-04-07T15:04:52.101Z,3.30
2019-04-07T15:07:37.920Z,3.47
2019-04-07T15:10:16.904Z,3.02
2019-04-07T15:12:47.664Z,3.08
2019-04-07T15:15:14.846Z,3.05
2019-04-07T15:17:42.481Z,3.20
2019-04-07T15:20:12.831Z,3.45
2019-04-07T15:22:39.056Z,3.08
2019-04-07T15:25:07.634Z,3.45
2019-04-07T15:27:36.929Z,3.20
2019-04-07T15:30:04.490Z,3.15
2019-04-07T15:32:31.682Z,3.50
2019-04-07T15:34:59.005Z,3.67
2019-04-07T15:37:27.097Z,3.30
2019-04-07T15:39:54.593Z,3.52
2019-04-07T15:42:33.160Z,3.10
2019-04-07T15:44:51.960Z,3.12
2019-04-07T15:47:21.126Z,3.00
2019-04-07T15:49:49.561Z,2.90
2019-04-07T15:52:17.497Z,2.98
2019-04-07T15:54:44.803Z,2.92
2019-04-07T15:57:13.118Z,2.58
2019-04-07T15:59:42.400Z,2.70
2019-04-07T16:02:11.195Z,2.90
2019-04-07T16:04:39.138Z,2.65
2019-04-07T16:07:06.551Z,2.85
2019-04-07T16:09:41.985Z,2.77
2019-04-07T16:12:03.693Z,2.62
2019-04-07T16:14:32.056Z,2.20
2019-04-07T16:17:02.798Z,2.80
2019-04-07T16:19:37.681Z,3.42
2019-04-07T16:21:57.623Z,3.80
2019-04-07T16:24:25.690Z,3.67
2019-04-07T16:26:53.256Z,3.87
2019-04-07T16:29:21.223Z,3.45
2019-04-07T16:31:48.936Z,3.72
2019-04-07T16:34:16.567Z,3.37
2019-04-07T16:36:43.810Z,3.40
2019-04-07T16:39:11.471Z,4.28
2019-04-07T16:41:39.280Z,3.60
2019-04-07T16:44:09.289Z,4.05
2019-04-07T16:46:36.766Z,3.80
2019-04-07T16:49:04.529Z,3.80
2019-04-07T16:51:33.900Z,3.80
2019-04-07T16:54:02.418Z,3.83
2019-04-07T16:56:30.139Z,3.60
2019-04-07T16:58:57.351Z,4.10
2019-04-07T17:01:25.733Z,4.08
2019-04-07T17:03:54.283Z,4.15
2019-04-07T17:06:21.924Z,4.33
2019-04-07T17:08:51.515Z,4.17
2019-04-07T17:11:19.359Z,3.72
2019-04-07T17:13:47.215Z,3.60
2019-04-07T17:16:17.805Z,3.70
2019-04-07T17:18:44.144Z,3.80
2019-04-07T17:21:14.420Z,4.08
2019-04-07T17:23:42.863Z,3.70
2019-04-07T17:26:11.536Z,3.30
2019-04-07T17:28:39.996Z,3.45
2019-04-07T17:31:08.981Z,3.65
2019-04-07T17:33:37.946Z,3.98
2019-04-07T17:36:05.905Z,4.30
2019-04-07T17:38:41.245Z,6.10
2019-04-07T17:41:09.495Z,6.85
2019-04-07T17:43:56.832Z,5.00
2019-04-07T17:46:34.012Z,4.12
2019-04-07T17:49:34.377Z,4.30
2019-04-07T17:52:29.399Z,4.40
2019-04-07T17:55:34.285Z,4.30
2019-04-07T17:58:10.162Z,3.92
2019-04-07T18:01:08.917Z,4.55
2019-04-07T18:04:01.528Z,3.87
2019-04-07T18:07:06.377Z,4.47
2019-04-07T18:10:00.716Z,4.08
2019-04-07T18:13:01.567Z,3.83
2019-04-07T18:15:48.777Z,5.08
2019-04-07T18:18:38.260Z,5.10
2019-04-07T18:21:16.854Z,4.78
2019-04-07T18:24:03.517Z,5.30
2019-04-07T18:26:50.374Z,4.40
2019-04-07T18:29:30.991Z,4.75
2019-04-07T18:32:16.883Z,4.65
2019-04-07T18:35:22.647Z,4.97
2019-04-07T18:38:10.327Z,4.47
2019-04-07T18:40:51.067Z,4.97
2019-04-07T18:43:30.053Z,5.10
2019-04-07T18:46:11.603Z,5.75
2019-04-07T18:49:01.791Z,5.72
2019-04-07T18:51:44.552Z,6.00
2019-04-07T18:54:24.759Z,6.30
2019-04-07T18:57:10.496Z,6.15
2019-04-07T19:00:03.885Z,7.05
2019-04-07T19:02:44.330Z,7.85
2019-04-07T19:05:31.565Z,8.15
2019-04-07T19:08:19.462Z,7.90
2019-04-07T19:11:17.739Z,8.60
2019-04-07T19:14:38.012Z,8.08
2019-04-07T19:17:00.837Z,7.67
2019-04-07T19:19:48.456Z,9.03
2019-04-07T19:22:39.803Z,8.15
2019-04-07T19:25:30.352Z,7.20
2019-04-07T19:28:06.087Z,7.15
2019-04-07T19:30:43.627Z,5.85
2019-04-07T19:33:28.353Z,6.35
2019-04-07T19:36:16.768Z,6.17
2019-04-07T19:39:01.551Z,6.20
2019-04-07T19:41:48.944Z,6.87
2019-04-07T19:44:38.348Z,6.45
2019-04-07T19:47:12.062Z,7.33
2019-04-07T19:49:50.495Z,6.50
2019-04-07T19:52:37.108Z,6.80
2019-04-07T19:55:14.295Z,6.50
2019-04-07T19:58:17.619Z,6.67
2019-04-07T20:01:10.562Z,6.37
2019-04-07T20:03:52.119Z,6.12
2019-04-07T20:06:37.007Z,6.35
2019-04-07T20:09:23.666Z,7.17
2019-04-07T20:12:08.784Z,6.92
2019-04-07T20:15:12.048Z,6.58
2019-04-07T20:17:55.169Z,7.28
2019-04-07T20:20:33.648Z,7.80
2019-04-07T20:23:23.422Z,7.45
2019-04-07T20:26:21.494Z,8.63
2019-04-07T20:29:19.383Z,8.90
2019-04-07T20:32:07.129Z,8.75
2019-04-07T20:34:45.061Z,9.13
2019-04-07T20:37:19.031Z,8.90
2019-04-07T20:40:11.867Z,8.70
2019-04-07T20:43:05.115Z,7.83
2019-04-07T20:45:41.459Z,7.70
2019-04-07T20:48:25.706Z,8.73
2019-04-07T20:51:39.652Z,9.63
2019-04-07T20:54:31.542Z,8.93
2019-04-07T20:57:16.281Z,8.85
2019-04-07T21:00:02.353Z,9.38
2019-04-07T21:02:43.282Z,8.60
2019-04-07T21:05:30.775Z,8.20
2019-04-07T21:08:25.951Z,8.73
2019-04-07T21:11:19.286Z,8.13
2019-04-07T21:14:07.283Z,8.05
2019-04-07T21:16:46.523Z,7.72
2019-04-07T21:19:29.588Z,7.85
2019-04-07T21:22:22.852Z,7.83
2019-04-07T21:25:03.896Z,9.50
2019-04-07T21:28:00.113Z,8.23
2019-04-07T21:30:53.639Z,9.38
2019-04-07T21:33:32.428Z,9.30
2019-04-07T21:36:09.137Z,9.63
2019-04-07T21:38:43.614Z,9.50
2019-04-07T21:41:30.996Z,9.70
2019-04-07T21:44:33.685Z,10.20
2019-04-07T21:47:19.075Z,9.83
2019-04-07T21:50:05.453Z,9.85
2019-04-07T21:53:05.210Z,9.25
2019-04-07T21:55:49.775Z,8.68
2019-04-07T21:58:37.744Z,7.90
2019-04-07T22:01:18.700Z,8.60
2019-04-07T22:03:54.886Z,7.55
2019-04-07T22:06:48.743Z,7.83
2019-04-07T22:09:29.007Z,7.58
2019-04-07T22:11:57.988Z,7.70
2019-04-07T22:14:26.431Z,7.80
2019-04-07T22:16:54.669Z,8.13
2019-04-07T22:19:23.128Z,8.35
2019-04-07T22:21:53.297Z,8.63
2019-04-07T22:24:20.685Z,8.50
2019-04-07T22:26:50.153Z,8.98
2019-04-07T22:29:18.236Z,8.10
2019-04-07T22:31:49.345Z,8.30
2019-04-07T22:34:16.891Z,7.60
2019-04-07T22:36:47.027Z,8.40
2019-04-07T22:39:14.136Z,8.15
2019-04-07T22:41:42.900Z,7.53
2019-04-07T22:44:11.271Z,7.72
2019-04-07T22:46:39.548Z,8.33
2019-04-07T22:49:07.445Z,7.75
2019-04-07T22:51:34.698Z,7.95
2019-04-07T22:54:02.277Z,7.78
2019-04-07T22:56:29.853Z,8.10
2019-04-07T22:58:57.559Z,8.60
2019-04-07T23:01:25.114Z,9.00
2019-04-07T23:03:52.552Z,7.33
2019-04-07T23:06:20.876Z,7.53
2019-04-07T23:08:48.773Z,8.10
2019-04-07T23:11:16.307Z,8.05
2019-04-07T23:13:43.954Z,7.40
2019-04-07T23:16:15.784Z,7.67
2019-04-07T23:18:40.711Z,8.43
2019-04-07T23:21:08.237Z,8.10
2019-04-07T23:23:35.316Z,7.65
2019-04-07T23:26:02.527Z,7.85
2019-04-07T23:28:30.670Z,7.50
2019-04-07T23:30:59.037Z,7.78
2019-04-07T23:33:26.396Z,7.67
2019-04-07T23:35:54.115Z,8.85
2019-04-07T23:38:21.912Z,8.38
2019-04-07T23:40:49.449Z,8.38
2019-04-07T23:43:17.467Z,8.03
2019-04-07T23:45:44.967Z,8.35
2019-04-07T23:48:12.139Z,7.75
2019-04-07T23:50:39.326Z,8.00
2019-04-07T23:53:42.880Z,8.35
2019-04-07T23:56:10.162Z,7.05
2019-04-07T23:58:37.796Z,8.43
